Lafayette, LA (70507)

12:29 PM CDT on August 30, 2015 (GMT -0500)
APRSWXNET | | Change Station
CLOSE
Current Station
Personal Weather Station
Location: Carencro, LA
Elevation: 45 ft
Nearby Weather Stations

Elev 45 ft 30.33 °N, 92.05 °W | Updated 33 minutes ago

Mostly Cloudy
Mostly Cloudy
86 °F
Feels Like 91 °F
N
0
Wind Variable Wind from NW
Gusts 3.0 mph

Today
High -- | Low -- °F
--% Chance of Precip.
Yesterday
High -- | Low -- °F
Precip. -- in
6:43 AM 7:33 PM
Full, 99% visible
Pressure 30.07 in
Visibility 10.0 miles
Clouds Mostly Cloudy 3000 ft
Heat Index 91 °F
Dew Point 70 °F
Humidity 60%
Rainfall in
Snow Depth Not available.
UV 6 out of 12
Pollen 7.80 out of 12
Air Quality Not available.
Flu Activity Not available.
METAR KLFT 301653Z 07003KT 10SM BKN030 31/21 A3007 RMK AO2 SLP181 T03060206
Pressure 30.07 in
Visibility 10.0 miles
Clouds Mostly Cloudy 3000 ft
Heat Index 91 °F
Dew Point 70 °F
Humidity 60%
Rainfall in
Snow Depth Not available.
UV 6 out of 12
Pollen 7.80 out of 12
Air Quality Not available.
Flu Activity Not available.
METAR KLFT 301653Z 07003KT 10SM BKN030 31/21 A3007 RMK AO2 SLP181 T03060206

10-Day Weather Forecast

×

Almanac

Astronomy

Aug. 30, 2015 Rise Set
Actual Time
Civil Twilight
Nautical Twilight
Astronomical Twilight
Moon
Length of Visible Light
Length of Day
Tomorrow will be .
, % of the Moon is Illuminated

Today's Extremes

State Highs State Lows

Community

WunderPhotos

Upload Photos

1,851,014 photos uploaded!

WunderBlogs® & News

Nearby

Air Quality

  Air Quality AQ Index Pollutant
Not available.

Snow Depth

Station Depth Elevation

Earthquake Activity

City Distance Mag. Time & Date
Minimum magnitude displayed is 2.5.

Coastal Water Temperatures

Place Temperature

Stations

Nearby Weather Stations

Station Location Temp. Windchill Dew Point Humidity Wind Precip. Elev Updated Type